createdAt,value
2018-03-22T00:01:46.267Z,0.30
2018-03-22T00:04:15.831Z,0.30
2018-03-22T00:06:45.646Z,0.20
2018-03-22T00:09:16.445Z,0.20
2018-03-22T00:11:45.708Z,0.20
2018-03-22T00:14:15.448Z,0.10
2018-03-22T00:16:45.519Z,0.10
2018-03-22T00:19:15.060Z,0.10
2018-03-22T00:21:44.984Z,0.10
2018-03-22T00:24:14.711Z,0.10
2018-03-22T00:26:43.855Z,0.10
2018-03-22T00:29:14.216Z,0.00
2018-03-22T00:31:44.991Z,0.00
2018-03-22T00:34:15.415Z,0.00
2018-03-22T00:36:44.879Z,0.00
2018-03-22T00:39:14.590Z,-0.10
2018-03-22T00:41:44.238Z,0.00
2018-03-22T00:44:14.912Z,0.00
2018-03-22T00:46:44.317Z,-0.10
2018-03-22T00:49:14.061Z,-0.10
2018-03-22T00:51:42.815Z,0.00
2018-03-22T00:54:12.136Z,0.00
2018-03-22T00:56:41.055Z,0.00
2018-03-22T00:59:09.876Z,0.00
2018-03-22T01:01:39.019Z,0.00
2018-03-22T01:04:07.985Z,0.00
2018-03-22T01:06:36.919Z,0.00
2018-03-22T01:09:06.296Z,0.00
2018-03-22T01:11:35.430Z,0.00
2018-03-22T01:14:05.561Z,0.00
2018-03-22T01:16:35.216Z,0.00
2018-03-22T01:19:04.816Z,0.00
2018-03-22T01:21:33.715Z,0.00
2018-03-22T01:24:02.533Z,0.00
2018-03-22T01:26:31.974Z,0.10
2018-03-22T01:29:00.693Z,0.00
2018-03-22T01:31:29.527Z,0.10
2018-03-22T01:33:59.135Z,0.00
2018-03-22T01:36:28.003Z,0.00
2018-03-22T01:38:57.385Z,0.00
2018-03-22T01:41:26.381Z,0.00
2018-03-22T01:43:54.852Z,0.00
2018-03-22T01:46:24.577Z,-0.10
2018-03-22T01:48:53.043Z,-0.10
2018-03-22T01:51:21.718Z,-0.10
2018-03-22T01:53:50.613Z,-0.10
2018-03-22T01:56:19.114Z,-0.10
2018-03-22T01:58:47.480Z,-0.10
2018-03-22T02:01:17.702Z,-0.10
2018-03-22T02:03:46.252Z,-0.10
2018-03-22T02:06:15.348Z,-0.10
2018-03-22T02:08:44.140Z,-0.10
2018-03-22T02:11:13.152Z,-0.20
2018-03-22T02:13:41.632Z,-0.20
2018-03-22T02:16:10.531Z,-0.20
2018-03-22T02:18:39.316Z,-0.10
2018-03-22T02:21:08.244Z,-0.20
2018-03-22T02:23:37.205Z,-0.20
2018-03-22T02:26:05.742Z,-0.10
2018-03-22T02:28:33.858Z,-0.20
2018-03-22T02:31:02.363Z,-0.20
2018-03-22T02:33:30.867Z,-0.20
2018-03-22T02:36:00.406Z,-0.10
2018-03-22T02:38:29.499Z,-0.20
2018-03-22T02:40:58.112Z,-0.20
2018-03-22T02:43:27.124Z,-0.10
2018-03-22T02:45:56.674Z,-0.10
2018-03-22T02:48:26.024Z,-0.10
2018-03-22T02:50:54.656Z,-0.20
2018-03-22T02:53:23.145Z,-0.10
2018-03-22T02:55:51.694Z,-0.10
2018-03-22T02:58:20.216Z,0.00
2018-03-22T03:00:48.640Z,0.00
2018-03-22T03:03:17.384Z,-0.10
2018-03-22T03:05:45.563Z,-0.10
2018-03-22T03:08:14.000Z,-0.10
2018-03-22T03:10:42.557Z,-0.10
2018-03-22T03:13:11.089Z,-0.10
2018-03-22T03:15:39.584Z,-0.10
2018-03-22T03:18:08.102Z,-0.10
2018-03-22T03:20:37.260Z,-0.10
2018-03-22T03:23:05.592Z,-0.10
2018-03-22T03:25:34.596Z,-0.10
2018-03-22T03:28:03.007Z,0.00
2018-03-22T03:30:31.589Z,-0.10
2018-03-22T03:32:59.844Z,-0.10
2018-03-22T03:35:28.656Z,-0.10
2018-03-22T03:37:59.186Z,-0.10
2018-03-22T03:40:27.677Z,-0.10
2018-03-22T03:43:03.762Z,-0.10
2018-03-22T03:45:32.811Z,0.00
2018-03-22T03:48:01.449Z,-0.10
2018-03-22T03:50:30.733Z,-0.10
2018-03-22T03:52:59.624Z,-0.10
2018-03-22T03:55:28.445Z,-0.20
2018-03-22T03:57:56.853Z,-0.20
2018-03-22T04:00:25.281Z,-0.10
2018-03-22T04:02:53.790Z,-0.20
2018-03-22T04:05:21.956Z,-0.20
2018-03-22T04:07:50.520Z,-0.20
2018-03-22T04:10:19.981Z,-0.20
2018-03-22T04:12:49.190Z,-0.20
2018-03-22T04:15:17.727Z,-0.30
2018-03-22T04:17:46.003Z,-0.20
2018-03-22T04:20:15.745Z,-0.20
2018-03-22T04:22:44.139Z,-0.20
2018-03-22T04:25:13.311Z,-0.20
2018-03-22T04:27:41.769Z,-0.10
2018-03-22T04:30:10.733Z,-0.10
2018-03-22T04:32:39.294Z,-0.10
2018-03-22T04:35:07.826Z,-0.10
2018-03-22T04:37:36.196Z,-0.10
2018-03-22T04:40:05.421Z,-0.10
2018-03-22T04:42:33.787Z,-0.10
2018-03-22T04:45:02.208Z,-0.10
2018-03-22T04:47:31.672Z,-0.10
2018-03-22T04:50:00.140Z,-0.20
2018-03-22T04:52:28.844Z,-0.20
2018-03-22T04:54:57.205Z,-0.20
2018-03-22T04:57:25.340Z,-0.20
2018-03-22T04:59:54.612Z,-0.20
2018-03-22T05:02:23.436Z,-0.20
2018-03-22T05:04:52.619Z,-0.20
2018-03-22T05:07:22.577Z,-0.30
2018-03-22T05:09:51.300Z,-0.30
2018-03-22T05:12:20.143Z,-0.30
2018-03-22T05:14:49.108Z,-0.30
2018-03-22T05:17:18.313Z,-0.20
2018-03-22T05:19:47.046Z,-0.30
2018-03-22T05:22:15.551Z,-0.10
2018-03-22T05:24:44.688Z,-0.10
2018-03-22T05:27:14.567Z,-0.20
2018-03-22T05:29:43.246Z,-0.20
2018-03-22T05:32:11.964Z,-0.20
2018-03-22T05:34:41.600Z,-0.10
2018-03-22T05:37:12.152Z,-0.10
2018-03-22T05:39:41.508Z,-0.10
2018-03-22T05:42:10.777Z,0.00
2018-03-22T05:44:39.282Z,-0.10
2018-03-22T05:47:08.572Z,0.00
2018-03-22T05:49:38.071Z,0.00
2018-03-22T05:52:07.231Z,0.00
2018-03-22T05:54:36.248Z,0.00
2018-03-22T05:57:07.080Z,0.20
2018-03-22T05:59:37.820Z,0.20
2018-03-22T06:02:08.350Z,0.10
2018-03-22T06:04:37.642Z,0.10
2018-03-22T06:07:07.766Z,0.20
2018-03-22T06:09:36.575Z,0.30
2018-03-22T06:12:06.168Z,0.30
2018-03-22T06:14:35.683Z,0.20
2018-03-22T06:17:06.735Z,0.30
2018-03-22T06:19:36.161Z,0.30
2018-03-22T06:22:05.400Z,0.30
2018-03-22T06:24:34.077Z,0.30
2018-03-22T06:27:03.120Z,0.20
2018-03-22T06:29:32.075Z,0.30
2018-03-22T06:32:01.187Z,0.40
2018-03-22T06:34:31.101Z,0.50
2018-03-22T06:37:01.737Z,0.50
2018-03-22T06:39:31.236Z,0.50
2018-03-22T06:42:02.044Z,0.50
2018-03-22T06:44:32.857Z,0.60
2018-03-22T06:47:02.670Z,0.60
2018-03-22T06:49:31.695Z,0.50
2018-03-22T06:52:01.685Z,0.60
2018-03-22T06:54:31.060Z,0.50
2018-03-22T06:57:00.037Z,0.70
2018-03-22T06:59:30.688Z,0.60
2018-03-22T07:01:59.781Z,0.60
2018-03-22T07:04:30.378Z,0.70
2018-03-22T07:07:00.501Z,0.70
2018-03-22T07:09:29.383Z,0.70
2018-03-22T07:11:59.491Z,0.30
2018-03-22T07:14:28.828Z,0.20
2018-03-22T07:16:58.660Z,0.30
2018-03-22T07:19:28.433Z,0.20
2018-03-22T07:21:58.128Z,0.30
2018-03-22T07:24:27.856Z,0.30
2018-03-22T07:26:57.585Z,0.30
2018-03-22T07:29:27.293Z,0.30
2018-03-22T07:31:57.927Z,0.30
2018-03-22T07:34:27.225Z,0.30
2018-03-22T07:36:57.604Z,0.40
2018-03-22T07:39:27.710Z,0.40
2018-03-22T07:41:56.572Z,0.30
2018-03-22T07:44:30.134Z,0.50
2018-03-22T07:47:00.494Z,0.40
2018-03-22T07:49:30.053Z,0.30
2018-03-22T07:52:00.570Z,0.30
2018-03-22T07:54:30.198Z,0.40
2018-03-22T08:00:21.031Z,0.40
2018-03-22T08:02:51.238Z,0.40
2018-03-22T08:05:20.405Z,0.40
2018-03-22T08:07:49.758Z,0.50
2018-03-22T08:10:18.908Z,0.60
2018-03-22T08:12:48.192Z,0.70
2018-03-22T08:15:17.501Z,0.70
2018-03-22T08:17:47.150Z,0.60
2018-03-22T08:20:16.961Z,0.80
2018-03-22T08:22:46.392Z,0.90
2018-03-22T08:25:15.458Z,0.90
2018-03-22T08:27:45.517Z,0.90
2018-03-22T08:30:14.747Z,0.90
2018-03-22T08:32:44.081Z,0.90
2018-03-22T08:35:13.367Z,0.90
2018-03-22T08:37:42.706Z,1.00
2018-03-22T08:40:11.913Z,1.00
2018-03-22T08:42:42.200Z,1.00
2018-03-22T08:45:11.426Z,0.90
2018-03-22T08:47:42.934Z,0.80
2018-03-22T08:50:12.755Z,0.80
2018-03-22T08:52:41.952Z,1.00
2018-03-22T08:55:11.871Z,0.90
2018-03-22T08:57:41.935Z,0.70
2018-03-22T09:00:12.109Z,0.70
2018-03-22T09:02:41.247Z,0.70
2018-03-22T09:05:10.484Z,0.70
2018-03-22T09:07:40.729Z,0.60
2018-03-22T09:10:10.213Z,0.60
2018-03-22T09:12:39.398Z,0.50
2018-03-22T09:15:08.645Z,0.40
2018-03-22T09:17:37.968Z,0.40
2018-03-22T09:20:08.782Z,0.40
2018-03-22T09:22:37.959Z,0.40
2018-03-22T09:25:07.782Z,0.20
2018-03-22T09:27:36.890Z,0.20
2018-03-22T09:30:07.983Z,0.30
2018-03-22T09:32:39.544Z,0.10
2018-03-22T09:35:09.647Z,0.00
2018-03-22T09:37:59.578Z,0.00
2018-03-22T09:40:28.342Z,0.00
2018-03-22T09:42:57.826Z,0.00
2018-03-22T09:45:28.663Z,-0.10
2018-03-22T09:47:59.546Z,0.00
2018-03-22T09:50:28.899Z,0.00
2018-03-22T09:52:58.930Z,0.10
2018-03-22T09:55:27.929Z,0.10
2018-03-22T09:57:57.198Z,0.20
2018-03-22T10:00:27.366Z,0.40
2018-03-22T10:02:57.040Z,0.40
2018-03-22T10:05:27.027Z,0.50
2018-03-22T10:07:56.304Z,0.50
2018-03-22T10:10:25.370Z,0.50
2018-03-22T10:12:54.617Z,0.60
2018-03-22T10:15:23.599Z,0.70
2018-03-22T10:17:52.798Z,0.60
2018-03-22T10:20:21.838Z,0.70
2018-03-22T10:22:52.281Z,0.70
2018-03-22T10:25:21.397Z,0.70
2018-03-22T10:27:50.642Z,0.70
2018-03-22T10:30:19.867Z,0.70
2018-03-22T10:32:49.032Z,0.70
2018-03-22T10:35:18.297Z,0.70
2018-03-22T10:37:47.910Z,0.80
2018-03-22T10:40:17.057Z,0.70
2018-03-22T10:42:46.809Z,0.80
2018-03-22T10:45:15.876Z,0.70
2018-03-22T10:47:45.219Z,0.60
2018-03-22T10:50:14.814Z,0.70
2018-03-22T10:52:44.478Z,0.60
2018-03-22T10:55:13.937Z,0.60
2018-03-22T10:57:43.124Z,0.60
2018-03-22T11:00:14.210Z,0.80
2018-03-22T11:02:48.266Z,1.00
2018-03-22T11:05:23.249Z,0.90
2018-03-22T11:07:54.551Z,0.90
2018-03-22T11:10:29.638Z,1.00
2018-03-22T11:13:05.637Z,0.90
2018-03-22T11:15:53.502Z,0.90
2018-03-22T11:18:42.078Z,0.90
2018-03-22T11:21:49.524Z,1.00
2018-03-22T11:24:33.016Z,1.00
2018-03-22T11:27:31.124Z,0.90
2018-03-22T11:30:05.167Z,0.90
2018-03-22T11:32:42.017Z,0.80
2018-03-22T11:35:20.698Z,0.70
2018-03-22T11:38:41.376Z,0.60
2018-03-22T11:51:21.695Z,0.90
2018-03-22T11:53:56.332Z,0.90
2018-03-22T11:56:43.748Z,1.00
2018-03-22T11:59:25.717Z,1.10
2018-03-22T12:02:10.231Z,1.10
2018-03-22T12:04:41.270Z,1.20
2018-03-22T12:07:42.670Z,1.10
2018-03-22T12:10:41.405Z,1.10
2018-03-22T12:16:31.446Z,1.30
2018-03-22T12:19:02.084Z,1.20
2018-03-22T12:21:30.975Z,1.20
2018-03-22T12:24:00.111Z,1.20
2018-03-22T12:26:29.798Z,1.10
2018-03-22T12:28:58.787Z,1.10
2018-03-22T12:31:27.861Z,1.20
2018-03-22T12:33:57.062Z,1.30
2018-03-22T12:36:25.937Z,1.30
2018-03-22T12:38:55.301Z,1.40
2018-03-22T12:41:25.402Z,1.30
2018-03-22T12:43:54.507Z,1.40
2018-03-22T12:46:23.406Z,1.30
2018-03-22T12:48:52.954Z,1.30
2018-03-22T12:51:23.060Z,1.30
2018-03-22T12:53:52.191Z,1.20
2018-03-22T12:56:21.275Z,1.20
2018-03-22T12:58:50.241Z,1.30
2018-03-22T13:01:19.060Z,1.30
2018-03-22T13:03:48.722Z,1.20
2018-03-22T13:06:18.557Z,1.30
2018-03-22T13:08:47.809Z,1.20
2018-03-22T13:11:31.003Z,1.20
2018-03-22T13:14:00.547Z,1.20
2018-03-22T13:16:30.545Z,1.40
2018-03-22T13:18:59.499Z,1.40
2018-03-22T13:21:28.624Z,1.30
2018-03-22T13:23:57.588Z,1.40
2018-03-22T13:26:26.740Z,1.30
2018-03-22T13:28:56.463Z,1.40
2018-03-22T13:31:25.830Z,1.30
2018-03-22T13:33:55.273Z,1.40
2018-03-22T13:36:25.370Z,1.40
2018-03-22T13:38:54.435Z,1.40
2018-03-22T13:41:23.504Z,1.40
2018-03-22T13:43:52.563Z,1.50
2018-03-22T13:46:22.786Z,1.50
2018-03-22T13:48:52.563Z,1.50
2018-03-22T13:51:23.250Z,1.60
2018-03-22T13:53:52.752Z,1.60
2018-03-22T13:56:22.349Z,1.60
2018-03-22T13:58:51.871Z,1.40
2018-03-22T14:01:20.812Z,1.40
2018-03-22T14:03:50.400Z,1.30
2018-03-22T14:06:19.278Z,1.30
2018-03-22T14:08:49.617Z,1.40
2018-03-22T14:11:18.361Z,1.40
2018-03-22T14:13:47.238Z,1.30
2018-03-22T14:16:17.248Z,1.40
2018-03-22T14:18:47.261Z,1.50
2018-03-22T14:21:17.533Z,1.50
2018-03-22T14:23:46.595Z,1.50
2018-03-22T14:26:16.325Z,1.50
2018-03-22T14:28:45.373Z,1.50
2018-03-22T14:31:15.112Z,1.60
2018-03-22T14:33:44.905Z,1.50
2018-03-22T14:36:14.609Z,1.50
2018-03-22T14:38:44.613Z,1.60
2018-03-22T14:41:13.436Z,1.60
2018-03-22T14:43:42.265Z,1.70
2018-03-22T14:46:11.656Z,1.80
2018-03-22T14:48:40.499Z,1.90
2018-03-22T14:51:10.129Z,1.90
2018-03-22T14:53:39.055Z,1.90
2018-03-22T14:56:08.005Z,1.80
2018-03-22T14:58:37.185Z,1.80
2018-03-22T15:01:06.240Z,1.80
2018-03-22T15:03:35.963Z,1.80
2018-03-22T15:06:05.281Z,1.80
2018-03-22T15:08:35.031Z,1.90
2018-03-22T15:11:04.395Z,1.90
2018-03-22T15:13:33.922Z,1.80
2018-03-22T15:16:03.491Z,1.80
2018-03-22T15:18:32.579Z,1.90
2018-03-22T15:21:01.484Z,1.80
2018-03-22T15:23:31.478Z,1.90
2018-03-22T15:26:02.062Z,1.90
2018-03-22T15:28:32.503Z,2.00
2018-03-22T15:31:03.238Z,1.90
2018-03-22T15:33:32.240Z,1.90
2018-03-22T15:36:01.219Z,1.90
2018-03-22T15:38:30.132Z,1.90
2018-03-22T15:40:58.891Z,1.90
2018-03-22T15:43:28.297Z,1.90
2018-03-22T15:45:57.077Z,2.00
2018-03-22T15:48:26.229Z,1.90
2018-03-22T15:50:55.653Z,1.90
2018-03-22T15:53:24.930Z,1.80
2018-03-22T15:55:54.484Z,1.90
2018-03-22T15:58:23.273Z,2.00
2018-03-22T16:00:51.930Z,2.00
2018-03-22T16:03:20.651Z,1.90
2018-03-22T16:05:49.684Z,2.00
2018-03-22T16:08:18.575Z,2.10
2018-03-22T16:10:47.506Z,2.10
2018-03-22T16:13:16.269Z,2.10
2018-03-22T16:15:45.854Z,2.10
2018-03-22T16:18:14.683Z,2.10
2018-03-22T16:20:43.395Z,2.10
2018-03-22T16:23:12.257Z,2.10
2018-03-22T16:25:41.111Z,2.10
2018-03-22T16:28:10.102Z,2.10
2018-03-22T16:30:39.166Z,2.10
2018-03-22T16:33:07.951Z,2.10
2018-03-22T16:35:36.698Z,2.10
2018-03-22T16:38:06.649Z,2.10
2018-03-22T16:40:35.428Z,2.10
2018-03-22T16:43:04.770Z,2.10
2018-03-22T16:45:33.611Z,2.10
2018-03-22T16:48:02.537Z,2.20
2018-03-22T16:50:31.575Z,2.20
2018-03-22T16:53:01.275Z,2.10
2018-03-22T16:55:30.964Z,2.10
2018-03-22T16:58:00.660Z,2.10
2018-03-22T17:00:29.426Z,2.00
2018-03-22T17:02:58.449Z,2.00
2018-03-22T17:05:27.293Z,2.00
2018-03-22T17:07:56.208Z,2.00
2018-03-22T17:10:25.194Z,2.00
2018-03-22T17:12:54.068Z,2.00
2018-03-22T17:15:23.049Z,1.90
2018-03-22T17:21:14.486Z,2.00
2018-03-22T17:23:43.985Z,2.10
2018-03-22T17:26:13.839Z,2.00
2018-03-22T17:28:42.773Z,2.00
2018-03-22T17:31:38.343Z,2.00
2018-03-22T17:34:07.159Z,2.00
2018-03-22T17:36:35.961Z,2.00
2018-03-22T17:39:05.954Z,2.00
2018-03-22T17:41:34.703Z,2.00
2018-03-22T17:44:04.174Z,2.00
2018-03-22T17:46:33.910Z,1.90
2018-03-22T17:49:02.941Z,1.90
2018-03-22T17:51:31.807Z,1.90
2018-03-22T17:54:00.547Z,2.00
2018-03-22T17:56:29.388Z,1.90
2018-03-22T17:58:58.972Z,1.80
2018-03-22T18:01:28.467Z,1.80
2018-03-22T18:03:58.240Z,1.90
2018-03-22T18:06:27.143Z,1.90
2018-03-22T18:08:55.920Z,1.90
2018-03-22T18:11:25.103Z,1.80
2018-03-22T18:13:54.421Z,1.80
2018-03-22T18:16:23.519Z,1.80
2018-03-22T18:18:52.252Z,1.80
2018-03-22T18:21:21.000Z,1.80
2018-03-22T18:23:49.777Z,1.80
2018-03-22T18:26:18.566Z,1.70
2018-03-22T18:28:47.675Z,1.70
2018-03-22T18:31:17.331Z,1.70
2018-03-22T18:33:46.030Z,1.70
2018-03-22T18:36:14.906Z,1.70
2018-03-22T18:38:43.891Z,1.70
2018-03-22T18:41:12.593Z,1.70
2018-03-22T18:43:41.273Z,1.80
2018-03-22T18:46:10.064Z,1.70
2018-03-22T18:48:38.850Z,1.70
2018-03-22T19:07:56.328Z,1.80
2018-03-22T19:10:25.998Z,1.80
2018-03-22T19:12:54.903Z,1.70
2018-03-22T19:15:23.837Z,1.80
2018-03-22T19:17:52.671Z,1.80
2018-03-22T19:20:23.302Z,1.80
2018-03-22T19:22:52.066Z,1.70
2018-03-22T19:25:21.241Z,1.70
2018-03-22T19:27:49.939Z,1.70
2018-03-22T19:30:20.832Z,1.70
2018-03-22T19:32:51.384Z,1.70
2018-03-22T19:35:22.530Z,1.60
2018-03-22T19:37:52.242Z,1.60
2018-03-22T19:40:21.087Z,1.60
2018-03-22T19:42:49.917Z,1.60
2018-03-22T19:45:18.692Z,1.70
2018-03-22T19:47:48.356Z,1.60
2018-03-22T19:50:17.155Z,1.60
2018-03-22T19:52:46.124Z,1.60
2018-03-22T19:55:15.033Z,1.60
2018-03-22T19:57:43.866Z,1.60
2018-03-22T20:00:13.459Z,1.60
2018-03-22T20:02:43.244Z,1.60
2018-03-22T20:05:13.396Z,1.60
2018-03-22T20:07:43.095Z,1.70
2018-03-22T20:10:11.903Z,1.60
2018-03-22T20:12:41.272Z,1.60
2018-03-22T20:15:10.103Z,1.60
2018-03-22T20:17:39.006Z,1.70
2018-03-22T20:20:08.424Z,1.70
2018-03-22T20:22:37.256Z,1.70
2018-03-22T20:25:06.606Z,1.60
2018-03-22T20:27:36.058Z,1.60
2018-03-22T20:30:05.453Z,1.60
2018-03-22T20:32:34.282Z,1.60
2018-03-22T20:35:03.261Z,1.60
2018-03-22T20:37:33.519Z,1.60
2018-03-22T20:40:02.435Z,1.60
2018-03-22T20:42:31.032Z,1.70
2018-03-22T20:45:00.577Z,1.70
2018-03-22T20:47:29.234Z,1.70
2018-03-22T20:49:58.821Z,1.70
2018-03-22T20:52:27.770Z,1.70
2018-03-22T20:54:56.451Z,1.70
2018-03-22T20:57:25.344Z,1.70
2018-03-22T20:59:54.340Z,1.80
2018-03-22T21:02:23.351Z,1.80
2018-03-22T21:04:52.016Z,1.90
2018-03-22T21:07:20.949Z,1.90
2018-03-22T21:09:49.699Z,1.80
2018-03-22T21:12:19.533Z,1.90
2018-03-22T21:14:49.113Z,1.90
2018-03-22T21:17:18.603Z,1.90
2018-03-22T21:19:47.610Z,1.90
2018-03-22T21:22:16.377Z,1.90
2018-03-22T21:24:45.860Z,2.00
2018-03-22T21:27:14.614Z,2.00
2018-03-22T21:29:43.801Z,1.90
2018-03-22T21:32:12.922Z,1.90
2018-03-22T21:34:42.557Z,1.80
2018-03-22T21:37:12.284Z,1.80
2018-03-22T21:39:41.247Z,1.80
2018-03-22T21:42:10.885Z,1.80
2018-03-22T21:44:40.746Z,1.80
2018-03-22T21:47:18.358Z,1.80
2018-03-22T21:49:47.572Z,1.90
2018-03-22T21:52:27.625Z,1.90
2018-03-22T21:54:57.339Z,1.90
2018-03-22T21:57:27.534Z,1.80
2018-03-22T21:59:56.979Z,1.80
2018-03-22T22:02:25.897Z,1.90
2018-03-22T22:04:54.794Z,1.90
2018-03-22T22:07:23.918Z,1.90
2018-03-22T22:09:53.709Z,1.90
2018-03-22T22:12:23.565Z,1.90
2018-03-22T22:14:52.467Z,2.00
2018-03-22T22:17:22.118Z,1.90
2018-03-22T22:19:51.123Z,1.90
2018-03-22T22:22:19.930Z,2.00
2018-03-22T22:24:49.615Z,1.90
2018-03-22T22:27:18.537Z,1.90
2018-03-22T22:29:47.876Z,1.90
2018-03-22T22:32:17.320Z,1.90
2018-03-22T22:34:46.149Z,1.90
2018-03-22T22:37:15.045Z,1.90
2018-03-22T22:39:44.043Z,1.80
2018-03-22T22:42:13.791Z,1.90
2018-03-22T22:44:43.420Z,1.90
2018-03-22T22:47:13.141Z,1.90
2018-03-22T22:49:42.751Z,1.90
2018-03-22T22:52:11.930Z,1.90
2018-03-22T22:54:40.905Z,1.80
2018-03-22T22:57:11.622Z,1.80
2018-03-22T22:59:41.016Z,1.80
2018-03-22T23:02:11.700Z,1.80
2018-03-22T23:04:40.926Z,1.80
2018-03-22T23:07:10.130Z,1.80
2018-03-22T23:09:39.411Z,1.90
2018-03-22T23:12:09.984Z,1.90
2018-03-22T23:14:39.738Z,1.80
2018-03-22T23:17:08.964Z,1.80
2018-03-22T23:19:37.989Z,1.90
2018-03-22T23:22:07.494Z,1.90
2018-03-22T23:24:36.678Z,1.90
2018-03-22T23:27:05.999Z,1.90
2018-03-22T23:29:36.383Z,1.90
2018-03-22T23:32:05.844Z,1.80
2018-03-22T23:34:36.468Z,1.90
2018-03-22T23:37:06.644Z,1.80
2018-03-22T23:39:35.681Z,1.90
2018-03-22T23:42:05.053Z,1.80
2018-03-22T23:44:34.880Z,1.90
2018-03-22T23:47:04.945Z,1.90
2018-03-22T23:49:34.067Z,1.80
2018-03-22T23:52:04.140Z,1.90
2018-03-22T23:54:34.150Z,1.90
2018-03-22T23:57:04.764Z,1.90
2018-03-22T23:59:35.215Z,1.90
